createdAt,value
2023-06-17T00:00:56.641Z,87.70
2023-06-17T00:03:23.871Z,87.40
2023-06-17T00:05:52.401Z,87.40
2023-06-17T00:08:20.685Z,87.60
2023-06-17T00:10:47.825Z,87.50
2023-06-17T00:13:20.434Z,86.80
2023-06-17T00:15:49.251Z,87.30
2023-06-17T00:18:21.033Z,87.50
2023-06-17T00:20:48.497Z,87.50
2023-06-17T00:23:15.355Z,86.60
2023-06-17T00:25:43.632Z,87.00
2023-06-17T00:28:10.619Z,87.20
2023-06-17T00:30:38.034Z,86.70
2023-06-17T00:33:05.297Z,87.20
2023-06-17T00:35:32.796Z,87.00
2023-06-17T00:37:59.833Z,87.10
2023-06-17T00:40:26.849Z,87.00
2023-06-17T00:42:55.161Z,87.80
2023-06-17T00:45:22.090Z,87.00
2023-06-17T00:47:49.053Z,87.90
2023-06-17T00:50:17.155Z,86.90
2023-06-17T00:52:46.678Z,87.10
2023-06-17T00:55:14.265Z,87.10
2023-06-17T00:57:41.520Z,87.30
2023-06-17T01:00:12.083Z,87.00
2023-06-17T01:02:44.557Z,86.90
2023-06-17T01:05:13.816Z,86.60
2023-06-17T01:07:51.550Z,86.50
2023-06-17T01:10:22.733Z,86.60
2023-06-17T01:12:51.260Z,86.70
2023-06-17T01:15:20.594Z,86.80
2023-06-17T01:17:48.962Z,86.70
2023-06-17T01:20:16.665Z,86.70
2023-06-17T01:22:46.025Z,87.00
2023-06-17T01:25:15.712Z,87.10
2023-06-17T01:27:42.633Z,87.10
2023-06-17T01:30:11.352Z,87.50
2023-06-17T01:32:38.284Z,87.50
2023-06-17T01:35:12.067Z,87.70
2023-06-17T01:37:43.614Z,87.80
2023-06-17T01:40:13.549Z,88.10
2023-06-17T01:42:45.379Z,88.40
2023-06-17T01:45:14.063Z,88.70
2023-06-17T01:47:42.420Z,88.90
2023-06-17T01:50:10.143Z,89.10
2023-06-17T01:52:37.109Z,89.30
2023-06-17T01:55:04.995Z,89.00
2023-06-17T01:57:32.638Z,89.10
2023-06-17T02:00:00.928Z,89.10
2023-06-17T02:02:29.953Z,89.60
2023-06-17T02:04:57.082Z,89.60
2023-06-17T02:07:25.784Z,90.00
2023-06-17T02:09:53.261Z,90.10
2023-06-17T02:12:20.317Z,90.10
2023-06-17T02:14:47.273Z,90.50
2023-06-17T02:17:15.932Z,90.50
2023-06-17T02:19:43.015Z,90.60
2023-06-17T02:22:11.053Z,90.70
2023-06-17T02:24:38.170Z,90.80
2023-06-17T02:27:06.594Z,91.00
2023-06-17T02:29:33.580Z,91.00
2023-06-17T02:32:01.186Z,91.10
2023-06-17T02:34:30.082Z,91.20
2023-06-17T02:36:58.015Z,91.10
2023-06-17T02:39:26.470Z,91.30
2023-06-17T02:41:54.624Z,91.90
2023-06-17T02:44:21.614Z,91.60
2023-06-17T02:46:48.556Z,91.70
2023-06-17T02:49:15.590Z,91.70
2023-06-17T02:51:43.959Z,91.80
2023-06-17T02:54:12.209Z,91.90
2023-06-17T02:56:39.266Z,91.90
2023-06-17T02:59:09.350Z,91.90
2023-06-17T03:01:40.457Z,91.90
2023-06-17T03:04:07.528Z,91.80
2023-06-17T03:06:37.180Z,92.00
2023-06-17T03:09:05.630Z,91.90
2023-06-17T03:11:34.003Z,92.00
2023-06-17T03:14:03.705Z,92.00
2023-06-17T03:16:35.057Z,92.10
2023-06-17T03:19:03.506Z,92.40
2023-06-17T03:21:33.705Z,92.50
2023-06-17T03:24:01.756Z,92.60
2023-06-17T03:26:31.954Z,92.80
2023-06-17T03:28:58.964Z,92.60
2023-06-17T03:31:25.920Z,92.60
2023-06-17T03:33:54.807Z,92.80
2023-06-17T03:36:31.121Z,92.90
2023-06-17T03:38:58.605Z,93.00
2023-06-17T03:41:28.050Z,92.90
2023-06-17T03:43:56.322Z,93.00
2023-06-17T03:46:23.412Z,92.90
2023-06-17T03:48:50.467Z,93.10
2023-06-17T03:51:19.653Z,93.40
2023-06-17T03:53:47.364Z,93.10
2023-06-17T03:56:15.423Z,93.40
2023-06-17T03:58:42.457Z,93.60
2023-06-17T04:01:13.997Z,93.70
2023-06-17T04:03:43.176Z,93.60
2023-06-17T04:06:10.827Z,93.80
2023-06-17T04:08:38.577Z,93.60
2023-06-17T04:11:05.503Z,93.80
2023-06-17T04:13:34.685Z,94.00
2023-06-17T04:16:01.955Z,94.10
2023-06-17T04:18:30.442Z,94.20
2023-06-17T04:20:57.794Z,94.30
2023-06-17T04:23:28.039Z,94.30
2023-06-17T04:25:57.807Z,94.40
2023-06-17T04:28:25.084Z,94.40
2023-06-17T04:30:54.149Z,94.30
2023-06-17T04:33:21.118Z,94.20
2023-06-17T04:35:51.074Z,94.50
2023-06-17T04:38:18.399Z,94.50
2023-06-17T04:40:46.596Z,94.60
2023-06-17T04:43:14.051Z,94.80
2023-06-17T04:45:42.989Z,94.80
2023-06-17T04:48:10.982Z,94.70
2023-06-17T04:50:38.631Z,94.60
2023-06-17T04:53:07.029Z,94.70
2023-06-17T04:55:37.463Z,94.70
2023-06-17T04:58:06.601Z,94.70
2023-06-17T05:00:48.365Z,94.70
2023-06-17T05:03:19.678Z,94.60
2023-06-17T05:05:47.315Z,94.10
2023-06-17T05:08:15.864Z,94.40
2023-06-17T05:10:42.841Z,94.30
2023-06-17T05:13:10.377Z,94.50
2023-06-17T05:15:37.375Z,94.60
2023-06-17T05:18:04.431Z,94.60
2023-06-17T05:20:31.381Z,94.40
2023-06-17T05:22:58.450Z,94.30
2023-06-17T05:25:27.036Z,94.30
2023-06-17T05:27:53.999Z,94.00
2023-06-17T05:30:23.938Z,93.80
2023-06-17T05:32:54.325Z,93.70
2023-06-17T05:35:21.451Z,93.40
2023-06-17T05:37:48.452Z,92.70
2023-06-17T05:40:16.128Z,93.00
2023-06-17T05:42:45.524Z,92.60
2023-06-17T05:45:13.136Z,92.60
2023-06-17T05:47:40.140Z,92.60
2023-06-17T05:50:07.526Z,92.90
2023-06-17T05:52:35.607Z,92.60
2023-06-17T05:55:02.634Z,92.40
2023-06-17T05:57:29.698Z,92.40
2023-06-17T05:59:58.055Z,92.60
2023-06-17T06:02:25.016Z,92.60
2023-06-17T06:04:51.918Z,92.70
2023-06-17T06:07:18.788Z,92.60
2023-06-17T06:09:46.090Z,92.20
2023-06-17T06:12:13.786Z,92.10
2023-06-17T06:14:42.272Z,92.60
2023-06-17T06:17:10.789Z,92.40
2023-06-17T06:19:37.948Z,92.40
2023-06-17T06:22:06.183Z,91.70
2023-06-17T06:24:34.454Z,91.40
2023-06-17T06:27:02.534Z,91.30
2023-06-17T06:29:29.655Z,91.00
2023-06-17T06:31:57.029Z,91.20
2023-06-17T06:34:25.468Z,90.50
2023-06-17T06:36:52.390Z,90.40
2023-06-17T06:39:19.959Z,90.30
2023-06-17T06:41:47.520Z,90.20
2023-06-17T06:44:34.373Z,90.30
2023-06-17T06:47:01.651Z,90.60
2023-06-17T06:49:31.732Z,89.80
2023-06-17T06:51:58.718Z,89.50
2023-06-17T06:54:25.798Z,89.60
2023-06-17T06:56:52.697Z,89.90
2023-06-17T06:59:19.749Z,89.40
2023-06-17T07:01:46.682Z,87.10
2023-06-17T07:04:13.964Z,87.70
2023-06-17T07:06:42.566Z,87.20
2023-06-17T07:09:14.388Z,86.70
2023-06-17T07:11:41.392Z,86.50
2023-06-17T07:14:08.593Z,86.20
2023-06-17T07:16:35.829Z,87.10
2023-06-17T07:19:04.405Z,87.80
2023-06-17T07:21:32.013Z,85.30
2023-06-17T07:24:00.586Z,84.50
2023-06-17T07:26:28.014Z,84.30
2023-06-17T07:28:55.397Z,85.70
2023-06-17T07:31:23.630Z,83.40
2023-06-17T07:33:55.814Z,81.90
2023-06-17T07:36:26.336Z,81.30
2023-06-17T07:38:53.475Z,80.80
2023-06-17T07:41:21.806Z,80.40
2023-06-17T07:43:48.757Z,80.50
2023-06-17T07:46:18.957Z,80.50
2023-06-17T07:48:45.961Z,79.70
2023-06-17T07:51:12.918Z,79.00
2023-06-17T07:53:39.984Z,79.00
2023-06-17T07:56:06.981Z,78.40
2023-06-17T07:58:35.214Z,77.60
2023-06-17T08:01:02.692Z,76.40
2023-06-17T08:03:30.337Z,76.30
2023-06-17T08:05:58.288Z,75.00
2023-06-17T08:08:25.255Z,75.40
2023-06-17T08:10:52.206Z,74.80
2023-06-17T08:13:19.110Z,75.30
2023-06-17T08:15:47.431Z,74.50
2023-06-17T08:18:14.451Z,76.10
2023-06-17T08:20:42.406Z,74.70
2023-06-17T08:23:09.305Z,74.00
2023-06-17T08:25:36.626Z,75.30
2023-06-17T08:28:04.013Z,75.70
2023-06-17T08:30:31.033Z,74.20
2023-06-17T08:32:59.329Z,74.20
2023-06-17T08:35:26.236Z,73.20
2023-06-17T08:37:53.210Z,72.90
2023-06-17T08:40:23.051Z,72.80
2023-06-17T08:42:57.315Z,72.70
2023-06-17T08:45:25.033Z,72.80
2023-06-17T08:47:52.268Z,73.70
2023-06-17T08:50:21.156Z,72.80
2023-06-17T08:52:50.730Z,72.50
2023-06-17T08:55:18.749Z,71.50
2023-06-17T08:57:47.303Z,71.40
2023-06-17T09:00:15.813Z,69.30
2023-06-17T09:02:46.111Z,67.70
2023-06-17T09:05:13.511Z,67.30
2023-06-17T09:07:42.891Z,66.50
2023-06-17T09:10:10.874Z,66.70
2023-06-17T09:12:38.840Z,66.50
2023-06-17T09:15:07.380Z,65.10
2023-06-17T09:17:34.488Z,66.40
2023-06-17T09:20:11.923Z,66.00
2023-06-17T09:22:45.872Z,66.20
2023-06-17T09:25:14.638Z,65.30
2023-06-17T09:28:00.911Z,65.20
2023-06-17T09:30:37.663Z,65.70
2023-06-17T09:33:05.765Z,65.70
2023-06-17T09:35:37.932Z,66.60
2023-06-17T09:38:06.700Z,67.70
2023-06-17T09:40:34.897Z,67.60
2023-06-17T09:43:20.931Z,66.20
2023-06-17T09:45:51.251Z,65.90
2023-06-17T09:48:18.666Z,63.50
2023-06-17T09:50:45.985Z,62.00
2023-06-17T09:53:15.184Z,60.70
2023-06-17T09:55:42.668Z,61.80
2023-06-17T09:58:10.106Z,62.20
2023-06-17T10:00:37.747Z,60.20
2023-06-17T10:03:05.502Z,59.00
2023-06-17T10:05:32.689Z,59.00
2023-06-17T10:07:59.950Z,58.60
2023-06-17T10:10:28.385Z,59.20
2023-06-17T10:12:57.844Z,59.50
2023-06-17T10:15:26.227Z,59.20
2023-06-17T10:17:54.624Z,59.70
2023-06-17T10:20:24.488Z,60.00
2023-06-17T10:22:55.935Z,59.40
2023-06-17T10:25:25.334Z,58.70
2023-06-17T10:27:54.790Z,58.90
2023-06-17T10:30:26.044Z,58.00
2023-06-17T10:32:55.776Z,56.80
2023-06-17T10:35:22.858Z,57.90
2023-06-17T10:37:51.267Z,57.60
2023-06-17T10:40:23.864Z,57.50
2023-06-17T10:42:58.690Z,56.40
2023-06-17T10:45:26.388Z,55.60
2023-06-17T10:48:13.881Z,55.50
2023-06-17T10:50:40.888Z,55.40
2023-06-17T10:53:08.610Z,56.10
2023-06-17T10:55:35.825Z,55.00
2023-06-17T10:58:04.272Z,54.30
2023-06-17T11:00:31.294Z,54.20
2023-06-17T11:02:58.291Z,53.10
2023-06-17T11:05:25.558Z,52.90
2023-06-17T11:07:52.484Z,53.60
2023-06-17T11:12:53.559Z,52.60
2023-06-17T11:15:25.826Z,51.40
2023-06-17T11:18:02.280Z,51.60
2023-06-17T11:20:31.066Z,50.70
2023-06-17T11:22:58.076Z,50.50
2023-06-17T11:25:43.504Z,49.70
2023-06-17T11:28:12.841Z,49.90
2023-06-17T11:30:42.140Z,49.90
2023-06-17T11:33:10.184Z,50.60
2023-06-17T11:35:39.105Z,49.50
2023-06-17T11:38:06.226Z,49.70
2023-06-17T11:40:33.165Z,50.80
2023-06-17T11:43:00.904Z,49.90
2023-06-17T11:45:29.352Z,51.10
2023-06-17T11:47:57.921Z,50.60
2023-06-17T11:50:29.983Z,51.00
2023-06-17T11:52:59.891Z,50.20
2023-06-17T11:55:36.878Z,50.00
2023-06-17T11:58:05.084Z,49.10
2023-06-17T12:00:36.904Z,48.50
2023-06-17T12:03:05.905Z,48.40
2023-06-17T12:05:33.262Z,47.30
2023-06-17T12:08:01.596Z,47.70
2023-06-17T12:10:28.734Z,47.70
2023-06-17T12:13:00.050Z,47.70
2023-06-17T12:18:11.514Z,49.10
2023-06-17T12:20:39.047Z,49.10
2023-06-17T12:23:06.179Z,49.60
2023-06-17T12:25:36.150Z,50.60
2023-06-17T12:28:03.270Z,50.20
2023-06-17T12:30:31.051Z,49.00
2023-06-17T12:32:58.391Z,47.80
2023-06-17T12:35:26.807Z,49.00
2023-06-17T12:37:56.387Z,48.10
2023-06-17T12:40:23.813Z,49.50
2023-06-17T12:42:50.754Z,48.30
2023-06-17T12:45:18.400Z,48.90
2023-06-17T12:47:45.976Z,49.40
2023-06-17T12:50:13.610Z,50.00
2023-06-17T12:52:42.490Z,51.10
2023-06-17T12:55:09.995Z,50.50
2023-06-17T12:57:37.593Z,50.90
2023-06-17T13:00:07.381Z,50.20
2023-06-17T13:02:36.935Z,49.80
2023-06-17T13:05:04.598Z,48.10
2023-06-17T13:07:32.036Z,49.10
2023-06-17T13:10:00.335Z,47.80
2023-06-17T13:12:27.245Z,49.10
2023-06-17T13:14:54.156Z,48.10
2023-06-17T13:17:21.132Z,48.70
2023-06-17T13:19:48.044Z,47.90
2023-06-17T13:22:14.983Z,46.70
2023-06-17T13:24:42.091Z,47.20
2023-06-17T13:27:12.267Z,46.70
2023-06-17T13:29:39.501Z,47.50
2023-06-17T13:32:07.124Z,48.00
2023-06-17T13:34:34.063Z,47.20
2023-06-17T13:37:01.185Z,47.00
2023-06-17T13:39:28.199Z,46.60
2023-06-17T13:41:55.214Z,46.50
2023-06-17T13:44:23.504Z,47.00
2023-06-17T13:46:50.858Z,47.30
2023-06-17T13:49:17.911Z,47.00
2023-06-17T13:51:46.181Z,48.00
2023-06-17T13:54:13.160Z,48.80
2023-06-17T13:56:40.086Z,49.00
2023-06-17T13:59:07.975Z,48.70
2023-06-17T14:01:36.266Z,48.10
2023-06-17T14:04:03.438Z,47.70
2023-06-17T14:06:32.603Z,46.20
2023-06-17T14:08:59.984Z,47.00
2023-06-17T14:11:27.050Z,46.40
2023-06-17T14:13:53.954Z,46.10
2023-06-17T14:16:20.999Z,46.80
2023-06-17T14:18:50.774Z,46.10
2023-06-17T14:21:28.126Z,45.70
2023-06-17T14:24:02.540Z,45.80
2023-06-17T14:26:29.596Z,45.90
2023-06-17T14:28:56.606Z,46.70
2023-06-17T14:31:23.765Z,44.90
2023-06-17T14:33:52.106Z,45.90
2023-06-17T14:36:19.207Z,46.20
2023-06-17T14:38:46.285Z,46.30
2023-06-17T14:41:13.323Z,45.20
2023-06-17T14:43:40.640Z,46.20
2023-06-17T14:46:07.891Z,45.90
2023-06-17T14:48:34.920Z,45.30
2023-06-17T14:51:03.699Z,44.70
2023-06-17T14:53:31.335Z,45.40
2023-06-17T14:56:33.490Z,45.90
2023-06-17T14:59:01.899Z,45.90
2023-06-17T15:01:33.297Z,46.30
2023-06-17T15:04:00.497Z,47.10
2023-06-17T15:06:28.793Z,47.00
2023-06-17T15:09:23.799Z,46.10
2023-06-17T15:11:50.744Z,46.30
2023-06-17T15:14:17.673Z,47.40
2023-06-17T15:16:44.614Z,47.10
2023-06-17T15:19:11.587Z,47.50
2023-06-17T15:21:39.996Z,47.60
2023-06-17T15:24:08.818Z,47.40
2023-06-17T15:26:35.883Z,47.30
2023-06-17T15:29:02.971Z,47.90
2023-06-17T15:31:30.078Z,47.50
2023-06-17T15:33:57.114Z,48.40
2023-06-17T15:36:24.011Z,48.30
2023-06-17T15:38:52.264Z,48.40
2023-06-17T15:41:19.217Z,48.10
2023-06-17T15:43:46.444Z,48.10
2023-06-17T15:46:13.372Z,49.00
2023-06-17T15:48:40.995Z,48.60
2023-06-17T15:51:07.948Z,48.80
2023-06-17T15:53:34.832Z,48.60
2023-06-17T15:56:03.250Z,48.80
2023-06-17T15:58:30.165Z,47.80
2023-06-17T16:00:57.179Z,48.70
2023-06-17T16:03:30.734Z,49.00
2023-06-17T16:05:58.957Z,49.40
2023-06-17T16:08:26.190Z,49.90
2023-06-17T16:10:53.684Z,50.20
2023-06-17T16:13:22.928Z,49.80
2023-06-17T16:15:49.906Z,50.40
2023-06-17T16:18:16.826Z,50.10
2023-06-17T16:20:43.708Z,49.70
2023-06-17T16:23:10.589Z,50.20
2023-06-17T16:25:49.969Z,50.10
2023-06-17T16:28:23.774Z,50.30
2023-06-17T16:30:50.862Z,50.30
2023-06-17T16:33:17.935Z,50.30
2023-06-17T16:35:44.963Z,50.80
2023-06-17T16:38:11.866Z,50.00
2023-06-17T16:40:38.751Z,50.60
2023-06-17T16:43:05.719Z,50.60
2023-06-17T16:45:34.595Z,50.70
2023-06-17T16:48:03.880Z,50.80
2023-06-17T16:50:30.835Z,51.10
2023-06-17T16:52:57.701Z,51.00
2023-06-17T16:55:24.900Z,51.10
2023-06-17T16:57:51.818Z,51.00
2023-06-17T17:00:19.543Z,50.70
2023-06-17T17:02:48.086Z,50.90
2023-06-17T17:05:15.165Z,51.00
2023-06-17T17:07:42.072Z,51.10
2023-06-17T17:10:09.567Z,52.00
2023-06-17T17:12:37.277Z,51.90
2023-06-17T17:15:04.627Z,51.60
2023-06-17T17:17:31.523Z,51.90
2023-06-17T17:19:59.946Z,52.00
2023-06-17T17:22:26.834Z,52.20
2023-06-17T17:24:54.107Z,52.50
2023-06-17T17:27:21.106Z,52.40
2023-06-17T17:29:48.010Z,52.90
2023-06-17T17:32:14.902Z,53.00
2023-06-17T17:34:41.788Z,52.60
2023-06-17T17:37:10.261Z,52.70
2023-06-17T17:39:37.161Z,52.70
2023-06-17T17:42:04.725Z,52.60
2023-06-17T17:44:31.649Z,52.80
2023-06-17T17:46:58.578Z,53.10
2023-06-17T17:49:25.508Z,53.00
2023-06-17T17:51:52.394Z,52.90
2023-06-17T17:54:20.721Z,52.90
2023-06-17T17:56:47.606Z,53.20
2023-06-17T17:59:14.510Z,53.20
2023-06-17T18:01:41.709Z,53.40
2023-06-17T18:04:10.071Z,53.50
2023-06-17T18:06:37.431Z,53.70
2023-06-17T18:09:04.728Z,53.90
2023-06-17T18:11:33.005Z,54.40
2023-06-17T18:14:00.095Z,54.20
2023-06-17T18:16:27.220Z,54.50
2023-06-17T18:18:54.244Z,54.40
2023-06-17T18:21:21.263Z,54.80
2023-06-17T18:23:48.284Z,55.30
2023-06-17T18:26:15.281Z,55.10
2023-06-17T18:28:43.519Z,54.90
2023-06-17T18:31:10.531Z,55.50
2023-06-17T18:33:37.600Z,55.30
2023-06-17T18:36:05.325Z,55.80
2023-06-17T18:38:32.288Z,55.70
2023-06-17T18:40:59.209Z,56.20
2023-06-17T18:43:26.124Z,55.90
2023-06-17T18:45:54.380Z,56.30
2023-06-17T18:48:21.394Z,56.50
2023-06-17T18:50:48.406Z,56.40
2023-06-17T18:53:15.554Z,56.60
2023-06-17T18:55:42.610Z,57.00
2023-06-17T18:58:09.537Z,57.50
2023-06-17T19:00:36.685Z,58.10
2023-06-17T19:03:05.783Z,58.30
2023-06-17T19:05:32.822Z,58.70
2023-06-17T19:08:01.075Z,59.20
2023-06-17T19:10:27.961Z,59.70
2023-06-17T19:12:54.900Z,59.00
2023-06-17T19:15:21.896Z,59.10
2023-06-17T19:17:57.854Z,59.90
2023-06-17T19:20:26.347Z,60.50
2023-06-17T19:22:53.578Z,60.80
2023-06-17T19:25:20.566Z,61.70
2023-06-17T19:27:47.508Z,61.80
2023-06-17T19:30:14.649Z,61.50
2023-06-17T19:32:41.702Z,61.50
2023-06-17T19:35:09.553Z,62.00
2023-06-17T19:37:39.242Z,62.60
2023-06-17T19:40:06.929Z,63.80
2023-06-17T19:42:33.860Z,63.00
2023-06-17T19:45:00.886Z,63.20
2023-06-17T19:47:28.482Z,63.00
2023-06-17T19:49:58.936Z,63.30
2023-06-17T19:52:25.971Z,63.80
2023-06-17T19:54:54.568Z,64.50
2023-06-17T19:57:21.549Z,65.20
2023-06-17T19:59:51.526Z,66.70
2023-06-17T20:02:20.257Z,66.40
2023-06-17T20:04:47.474Z,66.50
2023-06-17T20:07:14.429Z,66.80
2023-06-17T20:09:41.452Z,66.90
2023-06-17T20:12:10.128Z,67.90
2023-06-17T20:14:37.594Z,67.70
2023-06-17T20:17:05.071Z,67.50
2023-06-17T20:19:32.011Z,67.40
2023-06-17T20:21:58.956Z,67.40
2023-06-17T20:24:25.997Z,67.50
2023-06-17T20:26:53.032Z,67.70
2023-06-17T20:29:21.265Z,67.90
2023-06-17T20:31:48.216Z,68.20
2023-06-17T20:34:15.148Z,68.30
2023-06-17T20:36:42.848Z,68.50
2023-06-17T20:39:10.715Z,68.40
2023-06-17T20:41:37.684Z,68.60
2023-06-17T20:44:05.103Z,68.70
2023-06-17T20:46:33.449Z,68.60
2023-06-17T20:49:00.486Z,68.50
2023-06-17T20:51:27.422Z,68.30
2023-06-17T20:53:54.335Z,68.30
2023-06-17T20:56:23.020Z,68.50
2023-06-17T20:58:51.455Z,68.70
2023-06-17T21:01:20.941Z,69.00
2023-06-17T21:03:49.315Z,69.20
2023-06-17T21:06:16.285Z,69.50
2023-06-17T21:08:43.218Z,69.90
2023-06-17T21:11:10.117Z,70.30
2023-06-17T21:13:37.018Z,71.00
2023-06-17T21:16:04.194Z,71.20
2023-06-17T21:18:31.635Z,71.60
2023-06-17T21:20:59.884Z,71.80
2023-06-17T21:23:27.515Z,72.10
2023-06-17T21:25:57.748Z,72.40
2023-06-17T21:28:25.908Z,72.50
2023-06-17T21:30:52.962Z,72.30
2023-06-17T21:33:20.077Z,72.50
2023-06-17T21:35:47.015Z,72.40
2023-06-17T21:38:15.400Z,72.70
2023-06-17T21:40:42.369Z,73.00
2023-06-17T21:43:09.274Z,73.10
2023-06-17T21:45:36.190Z,73.60
2023-06-17T21:48:03.230Z,73.90
2023-06-17T21:50:33.316Z,73.80
2023-06-17T21:53:00.232Z,74.10
2023-06-17T21:55:28.476Z,74.10
2023-06-17T21:57:55.578Z,74.00
2023-06-17T22:00:23.644Z,74.20
2023-06-17T22:02:51.201Z,74.50
2023-06-17T22:05:18.637Z,74.60
2023-06-17T22:07:45.752Z,75.00
2023-06-17T22:10:12.911Z,75.10
2023-06-17T22:12:41.175Z,75.20
2023-06-17T22:15:08.997Z,75.50
2023-06-17T22:17:36.126Z,75.70
2023-06-17T22:20:03.831Z,75.90
2023-06-17T22:22:30.852Z,76.20
2023-06-17T22:24:57.839Z,76.60
2023-06-17T22:27:24.771Z,76.80
2023-06-17T22:29:53.152Z,76.90
2023-06-17T22:32:20.043Z,76.40
2023-06-17T22:34:47.127Z,76.30
2023-06-17T22:37:14.745Z,76.30
2023-06-17T22:39:41.666Z,76.60
2023-06-17T22:42:08.720Z,76.70
2023-06-17T22:44:35.688Z,76.70
2023-06-17T22:47:04.539Z,76.50
2023-06-17T22:49:32.411Z,76.70
2023-06-17T22:51:59.330Z,77.00
2023-06-17T22:54:26.462Z,77.10
2023-06-17T22:56:53.355Z,77.00
2023-06-17T22:59:20.373Z,76.80
2023-06-17T23:01:47.284Z,76.80
2023-06-17T23:04:15.715Z,76.80
2023-06-17T23:06:42.617Z,77.20
2023-06-17T23:09:09.999Z,77.50
2023-06-17T23:11:36.941Z,77.40
2023-06-17T23:14:03.906Z,77.70
2023-06-17T23:16:30.955Z,77.80
2023-06-17T23:18:57.907Z,77.90
2023-06-17T23:21:27.081Z,78.20
2023-06-17T23:23:54.203Z,78.60
2023-06-17T23:26:21.136Z,78.70
2023-06-17T23:28:49.540Z,78.70
2023-06-17T23:31:17.208Z,79.20
2023-06-17T23:33:44.169Z,79.00
2023-06-17T23:36:11.080Z,78.90
2023-06-17T23:38:40.731Z,78.80
2023-06-17T23:41:07.644Z,78.90
2023-06-17T23:43:34.531Z,79.00
2023-06-17T23:46:01.785Z,79.10
2023-06-17T23:48:28.827Z,79.10
2023-06-17T23:50:55.940Z,79.50
2023-06-17T23:53:22.955Z,79.80
2023-06-17T23:55:51.246Z,80.20
2023-06-17T23:58:18.145Z,80.70
